sensor_id;sensor_type;location;lat;lon;timestamp;P1;durP1;ratioP1;P2;durP2;ratioP2
50429;SDS011;36359;41.556;-8.418;2023-11-21T00:01:18;5.90;;;2.30;;
50429;SDS011;36359;41.556;-8.418;2023-11-21T00:03:43;6.15;;;2.25;;
50429;SDS011;36359;41.556;-8.418;2023-11-21T00:06:09;7.78;;;1.80;;
50429;SDS011;36359;41.556;-8.418;2023-11-21T00:08:35;10.23;;;2.58;;
50429;SDS011;36359;41.556;-8.418;2023-11-21T00:11:01;9.57;;;1.80;;
50429;SDS011;36359;41.556;-8.418;2023-11-21T00:13:27;6.25;;;1.55;;
50429;SDS011;36359;41.556;-8.418;2023-11-21T00:15:53;7.07;;;1.77;;
50429;SDS011;36359;41.556;-8.418;2023-11-21T00:18:20;6.15;;;1.55;;
50429;SDS011;36359;41.556;-8.418;2023-11-21T00:20:46;11.48;;;2.17;;
50429;SDS011;36359;41.556;-8.418;2023-11-21T00:23:11;7.60;;;1.67;;
50429;SDS011;36359;41.556;-8.418;2023-11-21T00:25:37;10.55;;;2.05;;
50429;SDS011;36359;41.556;-8.418;2023-11-21T00:28:03;11.45;;;1.95;;
50429;SDS011;36359;41.556;-8.418;2023-11-21T00:30:29;7.70;;;1.75;;
50429;SDS011;36359;41.556;-8.418;2023-11-21T00:32:56;12.00;;;2.00;;
50429;SDS011;36359;41.556;-8.418;2023-11-21T00:35:21;8.65;;;1.60;;
50429;SDS011;36359;41.556;-8.418;2023-11-21T00:37:47;7.57;;;1.58;;
50429;SDS011;36359;41.556;-8.418;2023-11-21T00:40:15;9.43;;;1.63;;
50429;SDS011;36359;41.556;-8.418;2023-11-21T00:42:41;7.68;;;1.85;;
50429;SDS011;36359;41.556;-8.418;2023-11-21T00:45:07;8.77;;;1.90;;
50429;SDS011;36359;41.556;-8.418;2023-11-21T00:47:33;11.13;;;2.05;;
50429;SDS011;36359;41.556;-8.418;2023-11-21T00:50:00;7.35;;;1.70;;
50429;SDS011;36359;41.556;-8.418;2023-11-21T00:52:25;6.90;;;1.80;;
50429;SDS011;36359;41.556;-8.418;2023-11-21T00:54:51;8.25;;;2.17;;
50429;SDS011;36359;41.556;-8.418;2023-11-21T00:57:17;8.10;;;2.13;;
50429;SDS011;36359;41.556;-8.418;2023-11-21T00:59:43;7.78;;;2.08;;
50429;SDS011;36359;41.556;-8.418;2023-11-21T01:02:08;4.15;;;1.83;;
50429;SDS011;36359;41.556;-8.418;2023-11-21T01:04:36;8.10;;;2.42;;
50429;SDS011;36359;41.556;-8.418;2023-11-21T01:07:01;6.50;;;1.95;;
50429;SDS011;36359;41.556;-8.418;2023-11-21T01:09:27;12.13;;;2.20;;
50429;SDS011;36359;41.556;-8.418;2023-11-21T01:11:53;4.93;;;1.92;;
50429;SDS011;36359;41.556;-8.418;2023-11-21T01:14:19;10.80;;;2.13;;
50429;SDS011;36359;41.556;-8.418;2023-11-21T01:16:45;7.97;;;1.98;;
50429;SDS011;36359;41.556;-8.418;2023-11-21T01:19:11;5.38;;;1.55;;
50429;SDS011;36359;41.556;-8.418;2023-11-21T01:21:36;3.20;;;1.10;;
50429;SDS011;36359;41.556;-8.418;2023-11-21T01:24:02;5.47;;;1.10;;
50429;SDS011;36359;41.556;-8.418;2023-11-21T01:26:28;5.63;;;1.40;;
50429;SDS011;36359;41.556;-8.418;2023-11-21T01:28:54;5.88;;;1.38;;
50429;SDS011;36359;41.556;-8.418;2023-11-21T01:31:20;4.20;;;1.02;;
50429;SDS011;36359;41.556;-8.418;2023-11-21T01:33:46;9.23;;;1.20;;
50429;SDS011;36359;41.556;-8.418;2023-11-21T01:36:11;5.95;;;1.30;;
50429;SDS011;36359;41.556;-8.418;2023-11-21T01:38:37;5.57;;;1.08;;
50429;SDS011;36359;41.556;-8.418;2023-11-21T01:41:03;5.35;;;1.05;;
50429;SDS011;36359;41.556;-8.418;2023-11-21T01:43:29;5.60;;;1.35;;
50429;SDS011;36359;41.556;-8.418;2023-11-21T01:45:57;8.02;;;1.40;;
50429;SDS011;36359;41.556;-8.418;2023-11-21T01:48:24;5.55;;;1.08;;
50429;SDS011;36359;41.556;-8.418;2023-11-21T01:50:51;6.50;;;1.20;;
50429;SDS011;36359;41.556;-8.418;2023-11-21T01:53:17;6.65;;;1.45;;
50429;SDS011;36359;41.556;-8.418;2023-11-21T01:55:43;6.78;;;1.10;;
50429;SDS011;36359;41.556;-8.418;2023-11-21T01:58:10;7.53;;;1.25;;
50429;SDS011;36359;41.556;-8.418;2023-11-21T02:00:37;6.95;;;1.27;;
50429;SDS011;36359;41.556;-8.418;2023-11-21T02:03:03;3.15;;;1.33;;
50429;SDS011;36359;41.556;-8.418;2023-11-21T02:05:29;4.57;;;1.15;;
50429;SDS011;36359;41.556;-8.418;2023-11-21T02:07:57;8.68;;;0.90;;
50429;SDS011;36359;41.556;-8.418;2023-11-21T02:10:23;4.18;;;0.88;;
50429;SDS011;36359;41.556;-8.418;2023-11-21T02:12:49;7.78;;;0.98;;
50429;SDS011;36359;41.556;-8.418;2023-11-21T02:15:16;3.78;;;0.90;;
50429;SDS011;36359;41.556;-8.418;2023-11-21T02:17:49;7.18;;;1.20;;
50429;SDS011;36359;41.556;-8.418;2023-11-21T02:20:17;5.25;;;1.10;;
50429;SDS011;36359;41.556;-8.418;2023-11-21T02:22:53;6.50;;;0.90;;
50429;SDS011;36359;41.556;-8.418;2023-11-21T02:25:23;5.95;;;1.40;;
50429;SDS011;36359;41.556;-8.418;2023-11-21T02:27:50;4.03;;;1.13;;
50429;SDS011;36359;41.556;-8.418;2023-11-21T02:30:16;5.50;;;0.90;;
50429;SDS011;36359;41.556;-8.418;2023-11-21T02:32:43;5.55;;;0.93;;
50429;SDS011;36359;41.556;-8.418;2023-11-21T02:35:09;4.97;;;1.08;;
50429;SDS011;36359;41.556;-8.418;2023-11-21T02:37:37;7.85;;;1.27;;
50429;SDS011;36359;41.556;-8.418;2023-11-21T02:40:04;9.93;;;1.00;;
50429;SDS011;36359;41.556;-8.418;2023-11-21T02:42:35;6.68;;;0.98;;
50429;SDS011;36359;41.556;-8.418;2023-11-21T02:45:00;6.30;;;1.33;;
50429;SDS011;36359;41.556;-8.418;2023-11-21T02:47:26;7.28;;;1.10;;
50429;SDS011;36359;41.556;-8.418;2023-11-21T02:49:52;6.13;;;1.00;;
50429;SDS011;36359;41.556;-8.418;2023-11-21T02:52:18;6.07;;;0.95;;
50429;SDS011;36359;41.556;-8.418;2023-11-21T02:54:44;6.03;;;1.30;;
50429;SDS011;36359;41.556;-8.418;2023-11-21T02:57:10;6.72;;;0.95;;
50429;SDS011;36359;41.556;-8.418;2023-11-21T02:59:36;9.30;;;1.35;;
50429;SDS011;36359;41.556;-8.418;2023-11-21T03:02:01;4.70;;;1.08;;
50429;SDS011;36359;41.556;-8.418;2023-11-21T03:04:27;6.30;;;1.23;;
50429;SDS011;36359;41.556;-8.418;2023-11-21T03:06:53;6.07;;;1.15;;
50429;SDS011;36359;41.556;-8.418;2023-11-21T03:09:19;5.55;;;1.00;;
50429;SDS011;36359;41.556;-8.418;2023-11-21T03:11:44;6.30;;;1.13;;
50429;SDS011;36359;41.556;-8.418;2023-11-21T03:14:10;7.25;;;1.10;;
50429;SDS011;36359;41.556;-8.418;2023-11-21T03:16:36;7.57;;;1.50;;
50429;SDS011;36359;41.556;-8.418;2023-11-21T03:19:03;6.70;;;1.48;;
50429;SDS011;36359;41.556;-8.418;2023-11-21T03:21:30;6.15;;;0.90;;
50429;SDS011;36359;41.556;-8.418;2023-11-21T03:23:56;5.97;;;1.20;;
50429;SDS011;36359;41.556;-8.418;2023-11-21T03:26:22;6.60;;;1.15;;
50429;SDS011;36359;41.556;-8.418;2023-11-21T03:28:47;6.25;;;1.23;;
50429;SDS011;36359;41.556;-8.418;2023-11-21T03:31:13;5.75;;;0.77;;
50429;SDS011;36359;41.556;-8.418;2023-11-21T03:33:41;5.43;;;0.88;;
50429;SDS011;36359;41.556;-8.418;2023-11-21T03:36:07;7.32;;;1.25;;
50429;SDS011;36359;41.556;-8.418;2023-11-21T03:38:33;9.63;;;1.35;;
50429;SDS011;36359;41.556;-8.418;2023-11-21T03:40:58;8.68;;;2.10;;
50429;SDS011;36359;41.556;-8.418;2023-11-21T03:43:27;12.27;;;1.15;;
50429;SDS011;36359;41.556;-8.418;2023-11-21T03:45:53;7.82;;;1.10;;
50429;SDS011;36359;41.556;-8.418;2023-11-21T03:48:19;6.00;;;1.00;;
50429;SDS011;36359;41.556;-8.418;2023-11-21T03:50:45;5.40;;;0.80;;
50429;SDS011;36359;41.556;-8.418;2023-11-21T03:53:12;9.05;;;1.50;;
50429;SDS011;36359;41.556;-8.418;2023-11-21T03:55:38;6.43;;;0.70;;
50429;SDS011;36359;41.556;-8.418;2023-11-21T03:58:04;8.18;;;1.52;;
50429;SDS011;36359;41.556;-8.418;2023-11-21T04:00:29;7.68;;;1.02;;
50429;SDS011;36359;41.556;-8.418;2023-11-21T04:02:55;7.97;;;1.20;;
50429;SDS011;36359;41.556;-8.418;2023-11-21T04:05:21;3.78;;;0.90;;
50429;SDS011;36359;41.556;-8.418;2023-11-21T04:07:48;7.47;;;1.05;;
50429;SDS011;36359;41.556;-8.418;2023-11-21T04:10:15;3.72;;;0.90;;
50429;SDS011;36359;41.556;-8.418;2023-11-21T04:12:41;7.50;;;1.35;;
50429;SDS011;36359;41.556;-8.418;2023-11-21T04:15:07;6.07;;;0.90;;
50429;SDS011;36359;41.556;-8.418;2023-11-21T04:17:36;8.93;;;1.42;;
50429;SDS011;36359;41.556;-8.418;2023-11-21T04:20:02;7.43;;;1.08;;
50429;SDS011;36359;41.556;-8.418;2023-11-21T04:22:36;11.18;;;1.13;;
50429;SDS011;36359;41.556;-8.418;2023-11-21T04:25:03;8.07;;;1.42;;
50429;SDS011;36359;41.556;-8.418;2023-11-21T04:27:29;6.82;;;1.20;;
50429;SDS011;36359;41.556;-8.418;2023-11-21T04:29:55;7.35;;;0.77;;
50429;SDS011;36359;41.556;-8.418;2023-11-21T04:32:21;5.68;;;0.95;;
50429;SDS011;36359;41.556;-8.418;2023-11-21T04:34:46;9.45;;;1.35;;
50429;SDS011;36359;41.556;-8.418;2023-11-21T04:37:12;8.23;;;1.10;;
50429;SDS011;36359;41.556;-8.418;2023-11-21T04:39:38;6.70;;;1.13;;
50429;SDS011;36359;41.556;-8.418;2023-11-21T04:42:04;5.00;;;1.38;;
50429;SDS011;36359;41.556;-8.418;2023-11-21T04:44:30;9.23;;;1.50;;
50429;SDS011;36359;41.556;-8.418;2023-11-21T04:46:55;8.27;;;1.10;;
50429;SDS011;36359;41.556;-8.418;2023-11-21T04:49:21;5.80;;;1.20;;
50429;SDS011;36359;41.556;-8.418;2023-11-21T04:51:47;8.88;;;1.25;;
50429;SDS011;36359;41.556;-8.418;2023-11-21T04:54:13;10.95;;;1.52;;
50429;SDS011;36359;41.556;-8.418;2023-11-21T04:56:38;7.10;;;1.25;;
50429;SDS011;36359;41.556;-8.418;2023-11-21T04:59:04;8.18;;;1.10;;
50429;SDS011;36359;41.556;-8.418;2023-11-21T05:01:30;9.27;;;1.33;;
50429;SDS011;36359;41.556;-8.418;2023-11-21T05:03:55;10.25;;;2.30;;
50429;SDS011;36359;41.556;-8.418;2023-11-21T05:06:22;11.25;;;1.38;;
50429;SDS011;36359;41.556;-8.418;2023-11-21T05:08:49;7.22;;;1.30;;
50429;SDS011;36359;41.556;-8.418;2023-11-21T05:11:24;9.52;;;1.50;;
50429;SDS011;36359;41.556;-8.418;2023-11-21T05:13:54;10.55;;;1.20;;
50429;SDS011;36359;41.556;-8.418;2023-11-21T05:19:03;6.70;;;1.27;;
50429;SDS011;36359;41.556;-8.418;2023-11-21T05:21:29;6.40;;;0.90;;
50429;SDS011;36359;41.556;-8.418;2023-11-21T05:23:58;9.25;;;1.40;;
50429;SDS011;36359;41.556;-8.418;2023-11-21T05:26:24;11.43;;;1.13;;
50429;SDS011;36359;41.556;-8.418;2023-11-21T05:28:50;7.55;;;1.17;;
50429;SDS011;36359;41.556;-8.418;2023-11-21T05:31:16;6.43;;;1.20;;
50429;SDS011;36359;41.556;-8.418;2023-11-21T05:33:42;10.00;;;1.27;;
50429;SDS011;36359;41.556;-8.418;2023-11-21T05:36:07;9.68;;;1.35;;
50429;SDS011;36359;41.556;-8.418;2023-11-21T05:38:35;8.43;;;1.30;;
50429;SDS011;36359;41.556;-8.418;2023-11-21T05:41:01;11.35;;;1.80;;
50429;SDS011;36359;41.556;-8.418;2023-11-21T05:43:29;8.20;;;1.33;;
50429;SDS011;36359;41.556;-8.418;2023-11-21T05:45:56;6.55;;;1.30;;
50429;SDS011;36359;41.556;-8.418;2023-11-21T05:48:22;8.48;;;1.60;;
50429;SDS011;36359;41.556;-8.418;2023-11-21T05:50:48;6.70;;;1.20;;
50429;SDS011;36359;41.556;-8.418;2023-11-21T05:53:15;6.93;;;1.25;;
50429;SDS011;36359;41.556;-8.418;2023-11-21T05:55:41;9.55;;;1.25;;
50429;SDS011;36359;41.556;-8.418;2023-11-21T05:58:07;7.22;;;1.48;;
50429;SDS011;36359;41.556;-8.418;2023-11-21T06:00:33;10.27;;;1.42;;
50429;SDS011;36359;41.556;-8.418;2023-11-21T06:02:59;7.20;;;1.25;;
50429;SDS011;36359;41.556;-8.418;2023-11-21T06:05:25;7.07;;;1.60;;
50429;SDS011;36359;41.556;-8.418;2023-11-21T06:07:55;8.90;;;1.50;;
50429;SDS011;36359;41.556;-8.418;2023-11-21T06:10:24;10.57;;;1.17;;
50429;SDS011;36359;41.556;-8.418;2023-11-21T06:12:50;9.77;;;1.55;;
50429;SDS011;36359;41.556;-8.418;2023-11-21T06:15:17;8.38;;;1.13;;
50429;SDS011;36359;41.556;-8.418;2023-11-21T06:17:45;7.38;;;1.25;;
50429;SDS011;36359;41.556;-8.418;2023-11-21T06:20:14;7.68;;;1.25;;
50429;SDS011;36359;41.556;-8.418;2023-11-21T06:22:41;9.13;;;1.15;;
50429;SDS011;36359;41.556;-8.418;2023-11-21T06:25:08;7.57;;;1.52;;
50429;SDS011;36359;41.556;-8.418;2023-11-21T06:27:36;6.53;;;1.33;;
50429;SDS011;36359;41.556;-8.418;2023-11-21T06:30:04;10.55;;;1.75;;
50429;SDS011;36359;41.556;-8.418;2023-11-21T06:32:31;5.25;;;1.02;;
50429;SDS011;36359;41.556;-8.418;2023-11-21T06:34:58;11.52;;;1.42;;
50429;SDS011;36359;41.556;-8.418;2023-11-21T06:37:27;9.73;;;1.23;;
50429;SDS011;36359;41.556;-8.418;2023-11-21T06:39:53;8.40;;;1.15;;
50429;SDS011;36359;41.556;-8.418;2023-11-21T06:42:19;7.68;;;1.15;;
50429;SDS011;36359;41.556;-8.418;2023-11-21T06:44:46;6.07;;;1.50;;
50429;SDS011;36359;41.556;-8.418;2023-11-21T06:47:13;9.73;;;1.13;;
50429;SDS011;36359;41.556;-8.418;2023-11-21T06:49:39;9.90;;;1.55;;
50429;SDS011;36359;41.556;-8.418;2023-11-21T06:52:05;7.78;;;1.13;;
50429;SDS011;36359;41.556;-8.418;2023-11-21T06:54:31;9.48;;;1.23;;
50429;SDS011;36359;41.556;-8.418;2023-11-21T06:56:58;8.50;;;1.25;;
50429;SDS011;36359;41.556;-8.418;2023-11-21T06:59:23;6.88;;;1.05;;
50429;SDS011;36359;41.556;-8.418;2023-11-21T07:01:50;6.10;;;0.90;;
50429;SDS011;36359;41.556;-8.418;2023-11-21T07:04:16;7.63;;;1.13;;
50429;SDS011;36359;41.556;-8.418;2023-11-21T07:06:41;5.68;;;1.17;;
50429;SDS011;36359;41.556;-8.418;2023-11-21T07:09:08;9.15;;;1.20;;
50429;SDS011;36359;41.556;-8.418;2023-11-21T07:11:34;8.70;;;1.50;;
50429;SDS011;36359;41.556;-8.418;2023-11-21T07:14:02;9.52;;;1.55;;
50429;SDS011;36359;41.556;-8.418;2023-11-21T07:16:35;7.13;;;1.15;;
50429;SDS011;36359;41.556;-8.418;2023-11-21T07:19:05;6.90;;;1.20;;
50429;SDS011;36359;41.556;-8.418;2023-11-21T07:21:34;8.52;;;1.08;;
50429;SDS011;36359;41.556;-8.418;2023-11-21T07:24:01;6.95;;;1.38;;
50429;SDS011;36359;41.556;-8.418;2023-11-21T07:26:27;7.85;;;1.27;;
50429;SDS011;36359;41.556;-8.418;2023-11-21T07:28:54;8.77;;;1.60;;
50429;SDS011;36359;41.556;-8.418;2023-11-21T07:31:20;5.97;;;1.60;;
50429;SDS011;36359;41.556;-8.418;2023-11-21T07:33:47;11.45;;;1.90;;
50429;SDS011;36359;41.556;-8.418;2023-11-21T07:36:14;14.55;;;1.80;;
50429;SDS011;36359;41.556;-8.418;2023-11-21T07:38:40;12.43;;;1.60;;
50429;SDS011;36359;41.556;-8.418;2023-11-21T07:41:07;7.70;;;1.40;;
50429;SDS011;36359;41.556;-8.418;2023-11-21T07:43:34;11.43;;;1.55;;
50429;SDS011;36359;41.556;-8.418;2023-11-21T07:46:04;12.15;;;1.88;;
50429;SDS011;36359;41.556;-8.418;2023-11-21T07:48:30;13.07;;;2.13;;
50429;SDS011;36359;41.556;-8.418;2023-11-21T07:50:56;9.43;;;1.80;;
50429;SDS011;36359;41.556;-8.418;2023-11-21T07:53:25;12.10;;;1.58;;
50429;SDS011;36359;41.556;-8.418;2023-11-21T07:55:54;12.00;;;1.58;;
50429;SDS011;36359;41.556;-8.418;2023-11-21T07:58:20;22.33;;;1.87;;
50429;SDS011;36359;41.556;-8.418;2023-11-21T08:00:46;25.70;;;2.87;;
50429;SDS011;36359;41.556;-8.418;2023-11-21T08:03:13;17.70;;;1.58;;
50429;SDS011;36359;41.556;-8.418;2023-11-21T08:05:39;14.68;;;1.77;;
50429;SDS011;36359;41.556;-8.418;2023-11-21T08:08:05;16.73;;;2.95;;
50429;SDS011;36359;41.556;-8.418;2023-11-21T08:10:32;9.63;;;2.92;;
50429;SDS011;36359;41.556;-8.418;2023-11-21T08:13:02;17.40;;;3.07;;
50429;SDS011;36359;41.556;-8.418;2023-11-21T08:15:35;11.70;;;2.25;;
50429;SDS011;36359;41.556;-8.418;2023-11-21T08:18:05;15.97;;;2.47;;
50429;SDS011;36359;41.556;-8.418;2023-11-21T08:20:48;13.85;;;2.53;;
50429;SDS011;36359;41.556;-8.418;2023-11-21T08:23:24;16.53;;;3.00;;
50429;SDS011;36359;41.556;-8.418;2023-11-21T08:26:02;11.93;;;1.90;;
50429;SDS011;36359;41.556;-8.418;2023-11-21T08:28:30;17.23;;;2.80;;
50429;SDS011;36359;41.556;-8.418;2023-11-21T08:31:00;19.87;;;2.20;;
50429;SDS011;36359;41.556;-8.418;2023-11-21T08:33:29;11.37;;;2.23;;
50429;SDS011;36359;41.556;-8.418;2023-11-21T08:35:56;12.90;;;3.03;;
50429;SDS011;36359;41.556;-8.418;2023-11-21T08:39:00;11.57;;;2.53;;
50429;SDS011;36359;41.556;-8.418;2023-11-21T08:42:10;9.03;;;2.97;;
50429;SDS011;36359;41.556;-8.418;2023-11-21T08:44:59;8.20;;;3.30;;
50429;SDS011;36359;41.556;-8.418;2023-11-21T08:48:32;12.95;;;3.20;;
50429;SDS011;36359;41.556;-8.418;2023-11-21T08:50:58;17.27;;;3.08;;
50429;SDS011;36359;41.556;-8.418;2023-11-21T08:53:25;13.30;;;3.40;;
50429;SDS011;36359;41.556;-8.418;2023-11-21T08:55:54;16.88;;;3.53;;
50429;SDS011;36359;41.556;-8.418;2023-11-21T08:58:24;16.83;;;2.03;;
50429;SDS011;36359;41.556;-8.418;2023-11-21T09:00:49;12.90;;;3.92;;
50429;SDS011;36359;41.556;-8.418;2023-11-21T09:03:15;32.47;;;7.68;;
50429;SDS011;36359;41.556;-8.418;2023-11-21T09:05:41;26.23;;;8.25;;
50429;SDS011;36359;41.556;-8.418;2023-11-21T09:08:07;15.55;;;5.38;;
50429;SDS011;36359;41.556;-8.418;2023-11-21T09:10:33;24.17;;;5.90;;
50429;SDS011;36359;41.556;-8.418;2023-11-21T09:13:02;15.15;;;4.10;;
50429;SDS011;36359;41.556;-8.418;2023-11-21T09:15:37;12.82;;;3.22;;
50429;SDS011;36359;41.556;-8.418;2023-11-21T09:18:27;16.08;;;3.70;;
50429;SDS011;36359;41.556;-8.418;2023-11-21T09:24:14;13.52;;;2.40;;
50429;SDS011;36359;41.556;-8.418;2023-11-21T09:26:37;13.52;;;2.85;;
50429;SDS011;36359;41.556;-8.418;2023-11-21T09:29:09;13.80;;;2.95;;
50429;SDS011;36359;41.556;-8.418;2023-11-21T09:31:34;11.20;;;2.00;;
50429;SDS011;36359;41.556;-8.418;2023-11-21T09:34:21;12.75;;;2.50;;
50429;SDS011;36359;41.556;-8.418;2023-11-21T09:36:50;8.90;;;1.85;;
50429;SDS011;36359;41.556;-8.418;2023-11-21T09:39:16;13.70;;;3.40;;
50429;SDS011;36359;41.556;-8.418;2023-11-21T09:41:57;13.80;;;2.95;;
50429;SDS011;36359;41.556;-8.418;2023-11-21T09:45:29;9.63;;;2.53;;
50429;SDS011;36359;41.556;-8.418;2023-11-21T09:47:53;12.65;;;2.95;;
50429;SDS011;36359;41.556;-8.418;2023-11-21T09:55:54;12.77;;;3.33;;
50429;SDS011;36359;41.556;-8.418;2023-11-21T09:58:21;15.73;;;3.95;;
50429;SDS011;36359;41.556;-8.418;2023-11-21T10:00:52;15.82;;;4.90;;
50429;SDS011;36359;41.556;-8.418;2023-11-21T10:03:19;20.58;;;5.13;;
50429;SDS011;36359;41.556;-8.418;2023-11-21T10:05:45;14.63;;;3.80;;
50429;SDS011;36359;41.556;-8.418;2023-11-21T10:08:13;15.98;;;3.78;;
50429;SDS011;36359;41.556;-8.418;2023-11-21T10:10:42;14.35;;;4.88;;
50429;SDS011;36359;41.556;-8.418;2023-11-21T10:13:11;13.00;;;4.13;;
50429;SDS011;36359;41.556;-8.418;2023-11-21T10:15:38;13.40;;;3.83;;
50429;SDS011;36359;41.556;-8.418;2023-11-21T10:18:10;22.77;;;6.50;;
50429;SDS011;36359;41.556;-8.418;2023-11-21T10:20:42;13.88;;;5.43;;
50429;SDS011;36359;41.556;-8.418;2023-11-21T10:23:12;10.15;;;3.97;;
50429;SDS011;36359;41.556;-8.418;2023-11-21T10:25:41;11.45;;;3.22;;
50429;SDS011;36359;41.556;-8.418;2023-11-21T10:28:07;10.63;;;3.30;;
50429;SDS011;36359;41.556;-8.418;2023-11-21T10:30:36;12.73;;;3.25;;
50429;SDS011;36359;41.556;-8.418;2023-11-21T10:33:04;9.75;;;3.13;;
50429;SDS011;36359;41.556;-8.418;2023-11-21T10:35:46;12.25;;;2.90;;
50429;SDS011;36359;41.556;-8.418;2023-11-21T10:38:19;8.60;;;2.40;;
50429;SDS011;36359;41.556;-8.418;2023-11-21T10:40:48;8.98;;;2.50;;
50429;SDS011;36359;41.556;-8.418;2023-11-21T10:43:14;7.53;;;2.28;;
50429;SDS011;36359;41.556;-8.418;2023-11-21T10:45:41;8.82;;;2.17;;
50429;SDS011;36359;41.556;-8.418;2023-11-21T10:48:12;8.00;;;2.67;;
50429;SDS011;36359;41.556;-8.418;2023-11-21T10:50:43;10.68;;;2.55;;
50429;SDS011;36359;41.556;-8.418;2023-11-21T10:53:10;7.53;;;2.20;;
50429;SDS011;36359;41.556;-8.418;2023-11-21T10:55:37;11.50;;;3.55;;
50429;SDS011;36359;41.556;-8.418;2023-11-21T10:58:03;9.52;;;2.88;;
50429;SDS011;36359;41.556;-8.418;2023-11-21T11:00:30;8.55;;;3.33;;
50429;SDS011;36359;41.556;-8.418;2023-11-21T11:03:00;8.68;;;2.53;;
50429;SDS011;36359;41.556;-8.418;2023-11-21T11:05:27;10.05;;;1.90;;
50429;SDS011;36359;41.556;-8.418;2023-11-21T11:08:08;7.57;;;2.33;;
50429;SDS011;36359;41.556;-8.418;2023-11-21T11:10:37;10.18;;;2.50;;
50429;SDS011;36359;41.556;-8.418;2023-11-21T11:13:03;11.70;;;3.15;;
50429;SDS011;36359;41.556;-8.418;2023-11-21T11:15:32;9.40;;;2.75;;
50429;SDS011;36359;41.556;-8.418;2023-11-21T11:17:58;12.80;;;3.08;;
50429;SDS011;36359;41.556;-8.418;2023-11-21T11:20:34;10.70;;;3.17;;
50429;SDS011;36359;41.556;-8.418;2023-11-21T11:26:33;18.10;;;3.40;;
50429;SDS011;36359;41.556;-8.418;2023-11-21T11:34:48;11.70;;;2.90;;
50429;SDS011;36359;41.556;-8.418;2023-11-21T11:37:23;10.77;;;2.90;;
50429;SDS011;36359;41.556;-8.418;2023-11-21T11:39:49;9.40;;;2.42;;
50429;SDS011;36359;41.556;-8.418;2023-11-21T11:42:16;9.45;;;2.28;;
50429;SDS011;36359;41.556;-8.418;2023-11-21T11:52:34;10.90;;;2.92;;
50429;SDS011;36359;41.556;-8.418;2023-11-21T11:55:11;7.38;;;2.35;;
50429;SDS011;36359;41.556;-8.418;2023-11-21T11:57:42;10.02;;;2.25;;
50429;SDS011;36359;41.556;-8.418;2023-11-21T12:00:15;10.00;;;2.53;;
50429;SDS011;36359;41.556;-8.418;2023-11-21T12:02:57;12.95;;;2.65;;
50429;SDS011;36359;41.556;-8.418;2023-11-21T12:05:25;11.70;;;2.50;;
50429;SDS011;36359;41.556;-8.418;2023-11-21T12:07:56;11.20;;;2.70;;
50429;SDS011;36359;41.556;-8.418;2023-11-21T12:10:24;14.35;;;3.47;;
50429;SDS011;36359;41.556;-8.418;2023-11-21T12:12:53;12.18;;;3.78;;
50429;SDS011;36359;41.556;-8.418;2023-11-21T12:15:45;14.50;;;4.80;;
50429;SDS011;36359;41.556;-8.418;2023-11-21T12:18:11;24.40;;;8.65;;
50429;SDS011;36359;41.556;-8.418;2023-11-21T12:20:37;6.43;;;1.75;;
50429;SDS011;36359;41.556;-8.418;2023-11-21T12:23:06;12.23;;;2.58;;
50429;SDS011;36359;41.556;-8.418;2023-11-21T12:25:41;14.55;;;3.20;;
50429;SDS011;36359;41.556;-8.418;2023-11-21T12:28:08;7.20;;;1.80;;
50429;SDS011;36359;41.556;-8.418;2023-11-21T12:30:35;13.68;;;4.70;;
50429;SDS011;36359;41.556;-8.418;2023-11-21T12:33:03;19.58;;;7.15;;
50429;SDS011;36359;41.556;-8.418;2023-11-21T12:35:32;13.07;;;3.95;;
50429;SDS011;36359;41.556;-8.418;2023-11-21T12:40:29;10.73;;;2.20;;
50429;SDS011;36359;41.556;-8.418;2023-11-21T12:45:28;11.27;;;3.00;;
50429;SDS011;36359;41.556;-8.418;2023-11-21T12:48:01;15.43;;;3.30;;
50429;SDS011;36359;41.556;-8.418;2023-11-21T12:50:33;15.30;;;4.47;;
50429;SDS011;36359;41.556;-8.418;2023-11-21T12:55:35;8.43;;;1.17;;
50429;SDS011;36359;41.556;-8.418;2023-11-21T12:58:06;9.10;;;1.40;;
50429;SDS011;36359;41.556;-8.418;2023-11-21T13:00:38;5.20;;;1.00;;
50429;SDS011;36359;41.556;-8.418;2023-11-21T13:03:10;9.25;;;1.10;;
50429;SDS011;36359;41.556;-8.418;2023-11-21T13:05:41;5.22;;;1.30;;
50429;SDS011;36359;41.556;-8.418;2023-11-21T13:08:10;9.85;;;1.38;;
50429;SDS011;36359;41.556;-8.418;2023-11-21T13:10:40;7.45;;;0.90;;
50429;SDS011;36359;41.556;-8.418;2023-11-21T13:15:41;6.18;;;1.00;;
50429;SDS011;36359;41.556;-8.418;2023-11-21T13:18:18;9.88;;;1.42;;
50429;SDS011;36359;41.556;-8.418;2023-11-21T13:20:56;4.10;;;1.35;;
50429;SDS011;36359;41.556;-8.418;2023-11-21T13:23:28;8.05;;;2.13;;
50429;SDS011;36359;41.556;-8.418;2023-11-21T13:25:54;10.43;;;1.95;;
50429;SDS011;36359;41.556;-8.418;2023-11-21T13:28:20;8.25;;;2.40;;
50429;SDS011;36359;41.556;-8.418;2023-11-21T13:30:47;9.68;;;1.98;;
50429;SDS011;36359;41.556;-8.418;2023-11-21T13:33:14;6.57;;;1.48;;
50429;SDS011;36359;41.556;-8.418;2023-11-21T13:35:47;10.48;;;2.63;;
50429;SDS011;36359;41.556;-8.418;2023-11-21T13:38:15;9.25;;;2.10;;
50429;SDS011;36359;41.556;-8.418;2023-11-21T13:40:49;6.90;;;1.92;;
50429;SDS011;36359;41.556;-8.418;2023-11-21T13:45:46;9.90;;;1.30;;
50429;SDS011;36359;41.556;-8.418;2023-11-21T13:48:15;8.88;;;1.38;;
50429;SDS011;36359;41.556;-8.418;2023-11-21T13:50:53;5.68;;;1.52;;
50429;SDS011;36359;41.556;-8.418;2023-11-21T13:53:34;8.97;;;2.00;;
50429;SDS011;36359;41.556;-8.418;2023-11-21T13:56:03;11.65;;;1.80;;
50429;SDS011;36359;41.556;-8.418;2023-11-21T13:58:30;12.57;;;2.60;;
50429;SDS011;36359;41.556;-8.418;2023-11-21T14:01:14;8.70;;;1.38;;
50429;SDS011;36359;41.556;-8.418;2023-11-21T14:03:59;11.90;;;2.80;;
50429;SDS011;36359;41.556;-8.418;2023-11-21T14:06:37;12.35;;;2.20;;
50429;SDS011;36359;41.556;-8.418;2023-11-21T14:09:09;20.25;;;4.63;;
50429;SDS011;36359;41.556;-8.418;2023-11-21T14:11:35;8.60;;;1.85;;
50429;SDS011;36359;41.556;-8.418;2023-11-21T14:14:03;12.60;;;2.25;;
50429;SDS011;36359;41.556;-8.418;2023-11-21T14:16:30;9.05;;;2.92;;
50429;SDS011;36359;41.556;-8.418;2023-11-21T14:18:57;6.30;;;1.88;;
50429;SDS011;36359;41.556;-8.418;2023-11-21T14:21:35;24.35;;;4.55;;
50429;SDS011;36359;41.556;-8.418;2023-11-21T14:24:00;13.77;;;3.33;;
50429;SDS011;36359;41.556;-8.418;2023-11-21T14:26:26;10.32;;;2.78;;
50429;SDS011;36359;41.556;-8.418;2023-11-21T14:28:54;11.77;;;3.38;;
50429;SDS011;36359;41.556;-8.418;2023-11-21T14:31:20;10.52;;;2.08;;
50429;SDS011;36359;41.556;-8.418;2023-11-21T14:33:45;6.88;;;1.52;;
50429;SDS011;36359;41.556;-8.418;2023-11-21T14:36:11;9.18;;;1.90;;
50429;SDS011;36359;41.556;-8.418;2023-11-21T14:38:40;9.05;;;1.20;;
50429;SDS011;36359;41.556;-8.418;2023-11-21T14:41:09;9.40;;;1.02;;
50429;SDS011;36359;41.556;-8.418;2023-11-21T14:43:36;12.82;;;1.60;;
50429;SDS011;36359;41.556;-8.418;2023-11-21T14:46:15;5.78;;;1.40;;
50429;SDS011;36359;41.556;-8.418;2023-11-21T14:48:44;9.82;;;1.77;;
50429;SDS011;36359;41.556;-8.418;2023-11-21T14:51:27;9.80;;;1.65;;
50429;SDS011;36359;41.556;-8.418;2023-11-21T14:53:57;6.88;;;1.33;;
50429;SDS011;36359;41.556;-8.418;2023-11-21T14:56:32;10.93;;;1.75;;
50429;SDS011;36359;41.556;-8.418;2023-11-21T14:59:00;7.47;;;1.20;;
50429;SDS011;36359;41.556;-8.418;2023-11-21T15:01:41;8.68;;;1.50;;
50429;SDS011;36359;41.556;-8.418;2023-11-21T15:04:23;7.07;;;1.23;;
50429;SDS011;36359;41.556;-8.418;2023-11-21T15:07:04;9.27;;;1.90;;
50429;SDS011;36359;41.556;-8.418;2023-11-21T15:09:30;14.15;;;1.88;;
50429;SDS011;36359;41.556;-8.418;2023-11-21T15:11:57;16.80;;;2.72;;
50429;SDS011;36359;41.556;-8.418;2023-11-21T15:14:29;11.98;;;2.03;;
50429;SDS011;36359;41.556;-8.418;2023-11-21T15:17:01;13.55;;;2.47;;
50429;SDS011;36359;41.556;-8.418;2023-11-21T15:19:28;13.95;;;2.85;;
50429;SDS011;36359;41.556;-8.418;2023-11-21T15:21:56;17.52;;;3.55;;